createdAt,value
2022-08-26T00:00:12.544Z,47.22
2022-08-26T00:02:43.821Z,47.13
2022-08-26T00:05:16.126Z,47.40
2022-08-26T00:07:48.641Z,47.99
2022-08-26T00:10:21.846Z,47.58
2022-08-26T00:12:55.595Z,47.81
2022-08-26T00:15:28.506Z,48.14
2022-08-26T00:18:00.735Z,48.13
2022-08-26T00:20:35.175Z,47.54
2022-08-26T00:23:06.997Z,47.16
2022-08-26T00:25:42.600Z,45.79
2022-08-26T00:28:15.142Z,46.93
2022-08-26T00:30:49.371Z,46.70
2022-08-26T00:33:23.286Z,46.55
2022-08-26T00:35:55.383Z,46.94
2022-08-26T00:38:27.651Z,47.26
2022-08-26T00:41:01.842Z,47.17
2022-08-26T00:43:47.271Z,46.99
2022-08-26T00:46:13.768Z,47.36
2022-08-26T00:48:49.249Z,47.83
2022-08-26T00:51:29.721Z,48.22
2022-08-26T00:54:03.823Z,48.49
2022-08-26T00:56:41.763Z,48.68
2022-08-26T00:59:15.781Z,48.90
2022-08-26T01:01:50.006Z,48.96
2022-08-26T01:04:24.144Z,49.32
2022-08-26T01:06:58.206Z,49.38
2022-08-26T01:09:30.668Z,49.47
2022-08-26T01:12:04.094Z,49.56
2022-08-26T01:14:38.161Z,49.73
2022-08-26T01:17:11.999Z,49.69
2022-08-26T01:19:47.120Z,50.09
2022-08-26T01:22:26.633Z,50.24
2022-08-26T01:25:03.554Z,50.11
2022-08-26T01:27:37.001Z,50.40
2022-08-26T01:30:11.490Z,50.51
2022-08-26T01:32:45.126Z,50.68
2022-08-26T01:35:18.105Z,51.00
2022-08-26T01:37:54.744Z,50.93
2022-08-26T01:40:31.496Z,51.32
2022-08-26T01:43:05.934Z,51.36
2022-08-26T01:45:39.508Z,51.31
2022-08-26T01:48:15.017Z,49.13
2022-08-26T01:50:49.311Z,51.35
2022-08-26T01:53:24.546Z,51.51
2022-08-26T01:56:00.296Z,51.60
2022-08-26T01:58:39.259Z,51.51
2022-08-26T02:01:14.800Z,51.65
2022-08-26T02:04:08.785Z,51.60
2022-08-26T02:06:42.030Z,51.66
2022-08-26T02:09:16.127Z,51.80
2022-08-26T02:11:51.196Z,51.89
2022-08-26T02:14:30.006Z,51.93
2022-08-26T02:17:04.105Z,52.12
2022-08-26T02:19:44.016Z,52.17
2022-08-26T02:22:19.778Z,52.21
2022-08-26T02:24:58.679Z,52.18
2022-08-26T02:27:35.217Z,52.15
2022-08-26T02:30:14.042Z,52.11
2022-08-26T02:32:47.179Z,52.19
2022-08-26T02:35:24.580Z,52.16
2022-08-26T02:37:57.612Z,52.26
2022-08-26T02:40:33.939Z,52.19
2022-08-26T02:43:09.938Z,52.14
2022-08-26T02:45:43.686Z,52.13
2022-08-26T02:48:19.340Z,51.99
2022-08-26T02:50:52.569Z,52.16
2022-08-26T02:53:25.744Z,52.11
2022-08-26T02:55:58.716Z,52.03
2022-08-26T02:58:32.775Z,52.08
2022-08-26T03:01:05.885Z,51.84
2022-08-26T03:03:39.388Z,51.82
2022-08-26T03:06:12.240Z,51.82
2022-08-26T03:08:45.401Z,51.57
2022-08-26T03:11:18.916Z,51.50
2022-08-26T03:13:52.058Z,51.43
2022-08-26T03:16:25.248Z,51.13
2022-08-26T03:19:00.891Z,51.06
2022-08-26T03:21:34.126Z,50.60
2022-08-26T03:24:10.105Z,50.60
2022-08-26T03:26:52.400Z,50.67
2022-08-26T03:29:34.289Z,50.13
2022-08-26T03:32:06.436Z,50.12
2022-08-26T03:34:38.766Z,49.82
2022-08-26T03:37:11.072Z,49.34
2022-08-26T03:39:43.221Z,48.65
2022-08-26T03:42:16.079Z,48.49
2022-08-26T03:44:48.458Z,48.47
2022-08-26T03:47:20.792Z,48.27
2022-08-26T03:49:53.251Z,47.92
2022-08-26T03:52:25.712Z,47.49
2022-08-26T03:54:57.879Z,47.04
2022-08-26T03:57:31.366Z,46.94
2022-08-26T04:00:05.857Z,46.67
2022-08-26T04:02:40.143Z,47.02
2022-08-26T04:05:14.148Z,47.35
2022-08-26T04:07:46.695Z,47.40
2022-08-26T04:10:29.192Z,47.69
2022-08-26T04:13:01.419Z,47.62
2022-08-26T04:15:34.090Z,47.75
2022-08-26T04:18:06.946Z,47.69
2022-08-26T04:20:39.268Z,47.66
2022-08-26T04:23:11.747Z,47.38
2022-08-26T04:25:44.032Z,47.25
2022-08-26T04:28:16.564Z,47.48
2022-08-26T04:33:19.529Z,47.17
2022-08-26T04:35:56.355Z,46.79
2022-08-26T04:38:29.291Z,46.74
2022-08-26T04:41:01.655Z,45.86
2022-08-26T04:43:34.187Z,45.29
2022-08-26T04:46:07.523Z,44.38
2022-08-26T04:48:41.531Z,43.08
2022-08-26T04:51:13.684Z,43.11
2022-08-26T04:53:46.271Z,42.35
2022-08-26T04:56:18.634Z,42.28
2022-08-26T04:58:51.013Z,41.97
2022-08-26T05:01:23.862Z,41.64
2022-08-26T05:03:56.438Z,41.53
2022-08-26T05:06:28.968Z,41.67
2022-08-26T05:09:02.962Z,41.28
2022-08-26T05:11:35.842Z,40.76
2022-08-26T05:14:08.426Z,40.93
2022-08-26T05:16:40.711Z,40.83
2022-08-26T05:19:13.400Z,39.90
2022-08-26T05:21:47.917Z,39.17
2022-08-26T05:24:20.774Z,39.47
2022-08-26T05:26:53.244Z,38.92
2022-08-26T05:29:25.452Z,38.28
2022-08-26T05:31:58.043Z,38.09
2022-08-26T05:34:30.498Z,37.16
2022-08-26T05:37:02.968Z,36.31
2022-08-26T05:39:36.468Z,36.39
2022-08-26T05:42:08.877Z,36.14
2022-08-26T05:44:54.081Z,35.52
2022-08-26T05:47:15.500Z,35.32
2022-08-26T05:49:51.604Z,35.06
2022-08-26T05:52:22.193Z,34.79
2022-08-26T05:54:56.069Z,33.88
2022-08-26T05:57:30.005Z,33.67
2022-08-26T06:00:02.492Z,33.16
2022-08-26T06:02:36.292Z,32.14
2022-08-26T06:05:09.215Z,31.35
2022-08-26T06:07:59.304Z,30.08
2022-08-26T06:10:33.129Z,29.10
2022-08-26T06:13:11.811Z,29.00
2022-08-26T06:15:47.142Z,28.94
2022-08-26T06:18:22.688Z,27.36
2022-08-26T06:20:57.987Z,26.18
2022-08-26T06:23:48.916Z,24.92
2022-08-26T06:26:21.480Z,24.45
2022-08-26T06:28:55.834Z,23.91
2022-08-26T06:31:28.430Z,23.85
2022-08-26T06:34:02.074Z,23.82
2022-08-26T06:36:35.126Z,23.90
2022-08-26T06:39:12.534Z,23.43
2022-08-26T06:41:45.820Z,23.16
2022-08-26T06:44:20.957Z,22.91
2022-08-26T06:46:53.650Z,22.74
2022-08-26T06:49:27.510Z,22.36
2022-08-26T06:52:00.372Z,21.51
2022-08-26T06:54:32.804Z,21.25
2022-08-26T06:57:05.209Z,20.83
2022-08-26T06:59:39.339Z,20.13
2022-08-26T07:02:13.562Z,19.46
2022-08-26T07:04:47.917Z,19.03
2022-08-26T07:07:21.675Z,18.75
2022-08-26T07:09:53.001Z,20.72
2022-08-26T07:12:26.719Z,18.26
2022-08-26T07:14:59.005Z,18.18
2022-08-26T07:17:32.788Z,18.26
2022-08-26T07:20:09.495Z,18.69
2022-08-26T07:22:42.497Z,20.28
2022-08-26T07:25:14.793Z,20.23
2022-08-26T07:27:53.966Z,20.79
2022-08-26T07:30:22.653Z,21.88
2022-08-26T07:32:57.401Z,22.55
2022-08-26T07:35:30.502Z,24.10
2022-08-26T07:38:02.886Z,23.82
2022-08-26T07:40:35.834Z,23.90
2022-08-26T07:43:09.761Z,24.82
2022-08-26T07:45:42.718Z,24.58
2022-08-26T07:48:15.037Z,24.90
2022-08-26T07:50:50.381Z,24.75
2022-08-26T07:53:22.272Z,24.63
2022-08-26T07:55:56.318Z,25.07
2022-08-26T07:58:29.149Z,24.80
2022-08-26T08:01:02.123Z,25.02
2022-08-26T08:03:36.129Z,25.22
2022-08-26T08:06:11.152Z,25.39
2022-08-26T08:08:43.187Z,25.36
2022-08-26T08:11:15.903Z,24.54
2022-08-26T08:13:49.824Z,24.64
2022-08-26T08:16:24.600Z,24.52
2022-08-26T08:18:58.470Z,24.63
2022-08-26T08:21:30.999Z,23.98
2022-08-26T08:24:02.765Z,24.54
2022-08-26T08:26:35.636Z,24.05
2022-08-26T08:29:09.033Z,23.19
2022-08-26T08:31:58.297Z,22.87
2022-08-26T08:34:15.666Z,23.01
2022-08-26T08:36:47.815Z,23.38
2022-08-26T08:39:20.176Z,23.72
2022-08-26T08:42:16.756Z,23.56
2022-08-26T08:44:52.507Z,23.59
2022-08-26T08:47:33.923Z,23.24
2022-08-26T08:50:15.010Z,22.93
2022-08-26T08:52:49.418Z,22.90
2022-08-26T08:55:21.414Z,22.94
2022-08-26T08:58:02.466Z,23.55
2022-08-26T09:00:49.301Z,21.83
2022-08-26T09:03:45.303Z,22.42
2022-08-26T09:06:18.943Z,23.45
2022-08-26T09:08:52.748Z,23.05
2022-08-26T09:11:25.173Z,23.41
2022-08-26T09:13:57.851Z,23.24
2022-08-26T09:16:38.414Z,23.15
2022-08-26T09:19:23.126Z,23.31
2022-08-26T09:22:04.647Z,22.98
2022-08-26T09:24:41.698Z,22.05
2022-08-26T09:27:11.701Z,22.11
2022-08-26T09:29:45.871Z,21.84
2022-08-26T09:32:27.135Z,22.10
2022-08-26T09:35:02.933Z,21.48
2022-08-26T09:37:41.128Z,21.15
2022-08-26T09:40:23.450Z,21.42
2022-08-26T09:43:22.909Z,21.54
2022-08-26T09:45:59.568Z,22.52
2022-08-26T09:48:36.052Z,20.79
2022-08-26T09:51:10.526Z,21.06
2022-08-26T09:53:54.736Z,20.53
2022-08-26T09:56:33.759Z,21.61
2022-08-26T09:59:08.104Z,21.19
2022-08-26T10:01:44.995Z,22.52
2022-08-26T10:04:23.602Z,21.36
2022-08-26T10:07:04.671Z,21.68
2022-08-26T10:09:44.919Z,21.17
2022-08-26T10:12:21.501Z,20.65
2022-08-26T10:14:59.182Z,22.07
2022-08-26T10:17:37.220Z,21.03
2022-08-26T10:20:23.097Z,22.45
2022-08-26T10:23:11.177Z,23.43
2022-08-26T10:25:54.322Z,21.91
2022-08-26T10:28:46.805Z,21.42
2022-08-26T10:31:30.527Z,20.99
2022-08-26T10:34:07.126Z,20.74
2022-08-26T10:37:13.744Z,19.92
2022-08-26T10:39:29.127Z,19.91
2022-08-26T10:42:05.675Z,19.65
2022-08-26T10:44:43.827Z,19.33
2022-08-26T10:47:22.736Z,19.17
2022-08-26T10:50:02.994Z,19.02
2022-08-26T10:52:50.619Z,18.76
2022-08-26T10:55:35.754Z,18.87
2022-08-26T10:58:26.109Z,18.61
2022-08-26T11:01:24.474Z,18.60
2022-08-26T11:04:19.625Z,18.66
2022-08-26T11:07:31.696Z,18.75
2022-08-26T11:10:14.167Z,18.81
2022-08-26T11:12:53.659Z,18.70
2022-08-26T11:15:29.643Z,18.53
2022-08-26T11:18:08.021Z,18.16
2022-08-26T11:20:45.201Z,18.16
2022-08-26T11:23:27.742Z,18.13
2022-08-26T11:26:12.363Z,16.32
2022-08-26T11:28:51.442Z,15.00
2022-08-26T11:31:31.766Z,16.07
2022-08-26T11:34:07.244Z,16.76
2022-08-26T11:36:45.585Z,17.31
2022-08-26T11:39:28.938Z,17.57
2022-08-26T11:42:04.937Z,17.77
2022-08-26T11:44:49.682Z,17.90
2022-08-26T11:47:19.998Z,18.13
2022-08-26T11:50:14.093Z,18.12
2022-08-26T11:53:07.650Z,17.82
2022-08-26T11:55:43.634Z,17.92
2022-08-26T11:58:17.186Z,17.64
2022-08-26T12:01:00.269Z,17.30
2022-08-26T12:03:48.004Z,17.43
2022-08-26T12:09:02.699Z,17.41
2022-08-26T12:11:39.266Z,16.69
2022-08-26T12:14:25.096Z,16.22
2022-08-26T12:17:03.338Z,15.63
2022-08-26T12:19:36.539Z,14.57
2022-08-26T12:22:30.755Z,13.48
2022-08-26T12:25:06.767Z,12.50
2022-08-26T12:27:45.329Z,11.38
2022-08-26T12:30:26.585Z,10.41
2022-08-26T12:33:21.960Z,9.65
2022-08-26T12:35:43.876Z,9.14
2022-08-26T12:38:16.992Z,8.53
2022-08-26T12:40:50.671Z,7.92
2022-08-26T12:43:39.691Z,7.54
2022-08-26T12:46:21.107Z,8.84
2022-08-26T12:48:53.992Z,6.62
2022-08-26T12:51:30.649Z,6.48
2022-08-26T12:54:05.849Z,6.52
2022-08-26T12:56:40.680Z,6.48
2022-08-26T12:59:23.178Z,6.54
2022-08-26T13:01:56.754Z,6.64
2022-08-26T13:04:38.633Z,6.62
2022-08-26T13:07:17.090Z,6.14
2022-08-26T13:09:51.055Z,6.14
2022-08-26T13:12:41.322Z,5.92
2022-08-26T13:15:14.531Z,5.83
2022-08-26T13:17:47.312Z,5.90
2022-08-26T13:20:20.694Z,6.12
2022-08-26T13:22:58.836Z,6.18
2022-08-26T13:25:28.248Z,6.13
2022-08-26T13:28:01.002Z,6.00
2022-08-26T13:30:33.635Z,6.09
2022-08-26T13:33:09.075Z,6.03
2022-08-26T13:35:43.625Z,6.13
2022-08-26T13:38:22.315Z,6.24
2022-08-26T13:40:50.982Z,6.24
2022-08-26T13:43:24.366Z,6.31
2022-08-26T13:45:57.073Z,6.32
2022-08-26T13:48:29.944Z,6.17
2022-08-26T13:51:03.290Z,6.21
2022-08-26T13:53:37.887Z,6.28
2022-08-26T13:56:12.498Z,6.18
2022-08-26T13:58:45.335Z,6.23
2022-08-26T14:01:19.974Z,6.27
2022-08-26T14:03:53.011Z,6.15
2022-08-26T14:06:26.100Z,6.26
2022-08-26T14:08:58.886Z,6.45
2022-08-26T14:11:41.245Z,6.52
2022-08-26T14:14:06.397Z,6.67
2022-08-26T14:16:58.839Z,6.80
2022-08-26T14:19:15.393Z,6.95
2022-08-26T14:21:48.409Z,7.03
2022-08-26T14:24:22.158Z,7.09
2022-08-26T14:26:54.845Z,7.27
2022-08-26T14:29:27.814Z,7.27
2022-08-26T14:32:03.618Z,7.93
2022-08-26T14:34:36.686Z,8.91
2022-08-26T14:37:13.544Z,10.02
2022-08-26T14:39:44.980Z,10.53
2022-08-26T14:42:20.883Z,11.53
2022-08-26T14:44:57.747Z,12.68
2022-08-26T14:47:31.064Z,13.65
2022-08-26T14:50:04.545Z,14.08
2022-08-26T14:52:38.769Z,14.15
2022-08-26T14:55:12.059Z,14.44
2022-08-26T14:57:44.861Z,15.16
2022-08-26T15:00:18.672Z,15.64
2022-08-26T15:02:51.600Z,16.15
2022-08-26T15:05:24.735Z,15.06
2022-08-26T15:07:57.683Z,16.96
2022-08-26T15:10:30.486Z,17.20
2022-08-26T15:13:03.779Z,17.77
2022-08-26T15:15:37.776Z,18.15
2022-08-26T15:18:11.009Z,18.21
2022-08-26T15:20:44.627Z,18.53
2022-08-26T15:23:17.833Z,18.84
2022-08-26T15:25:51.241Z,18.95
2022-08-26T15:28:24.517Z,19.25
2022-08-26T15:30:57.706Z,19.43
2022-08-26T15:33:30.565Z,19.57
2022-08-26T15:36:04.783Z,19.76
2022-08-26T15:38:41.417Z,19.99
2022-08-26T15:41:14.431Z,19.93
2022-08-26T15:43:47.284Z,20.04
2022-08-26T15:46:21.002Z,20.33
2022-08-26T15:48:54.134Z,20.41
2022-08-26T15:51:45.684Z,20.69
2022-08-26T15:54:11.497Z,20.92
2022-08-26T15:56:44.477Z,20.94
2022-08-26T15:59:17.531Z,21.24
2022-08-26T16:01:50.335Z,21.37
2022-08-26T16:04:23.092Z,21.67
2022-08-26T16:06:56.141Z,21.76
2022-08-26T16:09:30.286Z,21.89
2022-08-26T16:12:03.185Z,22.20
2022-08-26T16:14:36.670Z,22.21
2022-08-26T16:17:09.452Z,22.36
2022-08-26T16:19:42.593Z,22.61
2022-08-26T16:22:15.416Z,22.77
2022-08-26T16:24:48.591Z,23.12
2022-08-26T16:27:23.054Z,23.65
2022-08-26T16:29:55.843Z,23.34
2022-08-26T16:32:31.243Z,23.37
2022-08-26T16:35:03.394Z,23.48
2022-08-26T16:37:37.768Z,23.69
2022-08-26T16:40:11.947Z,23.86
2022-08-26T16:42:45.105Z,23.83
2022-08-26T16:45:18.538Z,24.07
2022-08-26T16:47:52.240Z,24.63
2022-08-26T16:50:25.669Z,24.57
2022-08-26T16:52:58.488Z,24.61
2022-08-26T16:55:31.681Z,24.75
2022-08-26T16:58:05.044Z,24.86
2022-08-26T17:00:38.018Z,25.01
2022-08-26T17:03:11.332Z,25.10
2022-08-26T17:05:44.644Z,25.37
2022-08-26T17:08:21.844Z,25.35
2022-08-26T17:10:54.884Z,25.48
2022-08-26T17:13:35.439Z,25.54
2022-08-26T17:16:04.271Z,25.72
2022-08-26T17:18:37.294Z,26.42
2022-08-26T17:21:11.777Z,26.03
2022-08-26T17:23:45.238Z,26.24
2022-08-26T17:26:17.749Z,26.26
2022-08-26T17:28:50.684Z,26.55
2022-08-26T17:31:23.865Z,26.66
2022-08-26T17:33:56.134Z,26.63
2022-08-26T17:36:28.584Z,26.71
2022-08-26T17:39:01.277Z,26.78
2022-08-26T17:41:35.502Z,26.81
2022-08-26T17:44:08.418Z,26.89
2022-08-26T17:46:41.764Z,26.94
2022-08-26T17:49:13.608Z,25.83
2022-08-26T17:51:45.767Z,27.02
2022-08-26T17:54:18.051Z,26.97
2022-08-26T17:56:50.123Z,27.13
2022-08-26T17:59:22.361Z,27.06
2022-08-26T18:01:55.639Z,27.31
2022-08-26T18:04:28.007Z,27.33
2022-08-26T18:07:00.108Z,27.27
2022-08-26T18:09:33.416Z,27.43
2022-08-26T18:12:06.551Z,27.39
2022-08-26T18:14:39.454Z,27.52
2022-08-26T18:17:11.558Z,27.58
2022-08-26T18:19:45.464Z,27.87
2022-08-26T18:22:17.586Z,27.76
2022-08-26T18:24:52.822Z,27.79
2022-08-26T18:27:23.902Z,28.01
2022-08-26T18:29:56.521Z,28.08
2022-08-26T18:32:28.686Z,28.39
2022-08-26T18:35:00.771Z,28.57
2022-08-26T18:37:34.184Z,28.89
2022-08-26T18:40:08.355Z,29.05
2022-08-26T18:42:41.528Z,29.32
2022-08-26T18:45:16.411Z,29.42
2022-08-26T18:47:49.534Z,30.31
2022-08-26T18:50:22.438Z,30.77
2022-08-26T18:52:54.767Z,31.01
2022-08-26T18:55:27.563Z,31.33
2022-08-26T18:57:59.764Z,31.19
2022-08-26T19:00:31.880Z,31.39
2022-08-26T19:03:04.547Z,31.15
2022-08-26T19:05:40.159Z,31.51
2022-08-26T19:08:12.667Z,31.46
2022-08-26T19:10:45.086Z,31.84
2022-08-26T19:13:17.212Z,32.33
2022-08-26T19:15:49.667Z,32.27
2022-08-26T19:18:21.808Z,31.82
2022-08-26T19:20:53.883Z,31.58
2022-08-26T19:23:32.088Z,31.62
2022-08-26T19:26:04.519Z,31.60
2022-08-26T19:28:37.454Z,31.45
2022-08-26T19:31:12.729Z,31.52
2022-08-26T19:33:45.929Z,31.48
2022-08-26T19:36:21.899Z,31.54
2022-08-26T19:38:56.134Z,31.46
2022-08-26T19:41:37.497Z,32.11
2022-08-26T19:44:07.692Z,32.54
2022-08-26T19:46:41.902Z,32.85
2022-08-26T19:49:14.079Z,33.21
2022-08-26T19:51:46.175Z,33.74
2022-08-26T19:54:18.719Z,33.97
2022-08-26T19:56:50.753Z,34.25
2022-08-26T19:59:22.989Z,34.42
2022-08-26T20:02:01.294Z,34.51
2022-08-26T20:04:28.924Z,34.44
2022-08-26T20:07:02.773Z,34.08
2022-08-26T20:09:36.872Z,34.11
2022-08-26T20:12:09.449Z,34.06
2022-08-26T20:14:41.624Z,33.69
2022-08-26T20:17:14.445Z,34.36
2022-08-26T20:20:04.515Z,34.37
2022-08-26T20:22:37.492Z,34.68
2022-08-26T20:25:10.168Z,34.88
2022-08-26T20:27:44.058Z,35.14
2022-08-26T20:30:17.066Z,35.21
2022-08-26T20:32:49.605Z,35.14
2022-08-26T20:35:21.730Z,34.98
2022-08-26T20:37:53.980Z,35.29
2022-08-26T20:40:26.552Z,35.59
2022-08-26T20:42:58.937Z,35.70
2022-08-26T20:45:31.339Z,35.35
2022-08-26T20:48:03.980Z,35.20
2022-08-26T20:50:36.393Z,35.13
2022-08-26T20:53:09.266Z,35.19
2022-08-26T20:55:42.145Z,35.25
2022-08-26T20:58:14.470Z,35.46
2022-08-26T21:00:46.705Z,35.76
2022-08-26T21:03:18.868Z,35.99
2022-08-26T21:05:52.387Z,35.82
2022-08-26T21:08:24.417Z,35.36
2022-08-26T21:10:57.342Z,35.19
2022-08-26T21:13:42.942Z,35.92
2022-08-26T21:16:03.769Z,35.78
2022-08-26T21:18:36.885Z,35.86
2022-08-26T21:21:10.571Z,35.74
2022-08-26T21:23:42.720Z,35.57
2022-08-26T21:26:16.846Z,35.90
2022-08-26T21:28:49.165Z,36.08
2022-08-26T21:31:23.988Z,36.15
2022-08-26T21:33:57.074Z,36.53
2022-08-26T21:36:29.600Z,36.81
2022-08-26T21:39:02.250Z,36.51
2022-08-26T21:41:34.456Z,36.63
2022-08-26T21:44:06.760Z,36.36
2022-08-26T21:46:39.027Z,35.87
2022-08-26T21:49:13.832Z,35.66
2022-08-26T21:51:48.457Z,35.42
2022-08-26T21:54:20.469Z,35.33
2022-08-26T21:56:54.198Z,35.04
2022-08-26T21:59:26.518Z,34.96
2022-08-26T22:01:59.353Z,35.26
2022-08-26T22:04:31.482Z,35.09
2022-08-26T22:07:04.380Z,35.11
2022-08-26T22:09:36.690Z,35.23
2022-08-26T22:12:12.480Z,35.14
2022-08-26T22:14:45.834Z,35.42
2022-08-26T22:17:17.915Z,35.86
2022-08-26T22:19:50.103Z,35.94
2022-08-26T22:22:23.092Z,36.66
2022-08-26T22:24:55.225Z,37.33
2022-08-26T22:27:27.538Z,37.11
2022-08-26T22:29:59.601Z,36.98
2022-08-26T22:32:34.633Z,37.08
2022-08-26T22:35:11.402Z,36.92
2022-08-26T22:37:41.367Z,37.46
2022-08-26T22:40:15.251Z,37.11
2022-08-26T22:42:55.591Z,37.04
2022-08-26T22:45:21.180Z,37.12
2022-08-26T22:47:53.476Z,36.72
2022-08-26T22:50:25.953Z,36.89
2022-08-26T22:52:58.373Z,36.99
2022-08-26T22:55:30.904Z,36.35
2022-08-26T22:58:03.226Z,36.41
2022-08-26T23:00:35.427Z,36.62
2022-08-26T23:03:07.854Z,36.78
2022-08-26T23:05:41.365Z,37.10
2022-08-26T23:08:14.418Z,37.42
2022-08-26T23:10:49.573Z,37.13
2022-08-26T23:13:22.297Z,37.13
2022-08-26T23:16:06.670Z,37.18
2022-08-26T23:18:39.423Z,37.23
2022-08-26T23:21:11.738Z,37.17
2022-08-26T23:23:45.532Z,37.32
2022-08-26T23:26:17.923Z,37.42
2022-08-26T23:28:49.908Z,36.14
2022-08-26T23:31:22.241Z,38.34
2022-08-26T23:34:11.910Z,38.50
2022-08-26T23:36:44.695Z,38.48
2022-08-26T23:39:18.626Z,38.76
2022-08-26T23:41:51.220Z,39.01
2022-08-26T23:44:24.884Z,39.32
2022-08-26T23:46:57.668Z,39.94
2022-08-26T23:49:31.037Z,39.75
2022-08-26T23:52:21.358Z,40.36
2022-08-26T23:54:54.090Z,40.75
2022-08-26T23:57:27.252Z,40.63
2022-08-26T23:59:59.468Z,40.62
